createdAt,value
2023-03-23T16:05:23.105Z,11.03
2023-03-23T16:15:25.519Z,10.62
2023-03-23T16:25:27.627Z,10.90
2023-03-23T16:35:29.865Z,11.04
2023-03-23T16:45:32.467Z,10.45
2023-03-23T16:55:35.993Z,10.52
2023-03-23T17:05:38.340Z,11.48
2023-03-23T17:15:46.081Z,11.28
2023-03-23T17:25:50.538Z,11.11
2023-03-23T17:35:53.880Z,10.54
2023-03-23T17:45:56.501Z,10.95
2023-03-23T17:55:59.237Z,10.35
2023-03-23T18:06:04.107Z,10.82
2023-03-23T18:16:07.800Z,11.14
2023-03-23T18:26:13.367Z,11.03
2023-03-23T18:36:23.099Z,10.45
2023-03-23T18:46:27.492Z,10.58
2023-03-23T18:56:29.879Z,10.00
2023-03-23T19:06:33.288Z,10.00
2023-03-23T19:16:36.393Z,10.05
2023-03-23T19:26:41.882Z,9.96
2023-03-23T19:36:54.484Z,9.54
2023-03-23T19:47:02.947Z,9.84
2023-03-23T19:57:05.860Z,10.11
2023-03-23T20:07:08.390Z,9.55
2023-03-23T20:17:11.810Z,10.42
2023-03-23T20:27:15.539Z,10.43
2023-03-23T20:37:21.012Z,9.82
2023-03-23T20:47:23.637Z,10.09
2023-03-23T20:57:25.939Z,10.03
2023-03-23T21:07:30.852Z,9.79
2023-03-23T21:17:32.998Z,9.95
2023-03-23T21:27:37.137Z,9.64
2023-03-23T21:37:39.497Z,9.55
2023-03-23T21:47:42.043Z,10.14
2023-03-23T21:57:47.356Z,10.31
2023-03-23T22:07:49.599Z,9.52
2023-03-23T22:17:51.869Z,9.29
2023-03-23T22:27:55.256Z,9.15
2023-03-23T22:37:57.529Z,9.22
2023-03-23T22:48:00.077Z,9.02
2023-03-23T22:58:02.550Z,9.29
2023-03-23T23:08:04.849Z,9.10
2023-03-23T23:18:07.165Z,8.93
2023-03-23T23:28:09.402Z,8.99
2023-03-23T23:38:12.625Z,8.69
2023-03-23T23:48:15.161Z,8.93
2023-03-23T23:58:19.582Z,8.75
